Terminal Aerodrome Forecast
Issued by NWS

Home | Current Version | Previous Version | Text Only | Print | Product List | Glossary Off
Versions: 1 2 3 4 5 6 7 8 9 10 11 12 13 14 15

000
FTUS43 KMPX 162333
TAFRWF
TAF
KRWF 162333Z 1700/1724 30007KT P6SM SCT060 BKN080
     FM170300 34007KT P6SM SCT080
     FM171200 35004KT P6SM SCT250
     FM172000 34006KT P6SM BKN150=

USA.gov is the U.S. government's official web portal to all federal, state and local government web resources and services.